sensor_id;sensor_type;location;lat;lon;timestamp;P1;durP1;ratioP1;P2;durP2;ratioP2
10293;SDS011;5192;50.328;7.610;2023-11-21T00:00:04;6.27;;;3.00;;
10293;SDS011;5192;50.328;7.610;2023-11-21T00:02:40;5.17;;;2.23;;
10293;SDS011;5192;50.328;7.610;2023-11-21T00:05:10;4.00;;;2.57;;
10293;SDS011;5192;50.328;7.610;2023-11-21T00:07:39;4.90;;;2.60;;
10293;SDS011;5192;50.328;7.610;2023-11-21T00:10:10;3.57;;;2.43;;
10293;SDS011;5192;50.328;7.610;2023-11-21T00:12:41;3.63;;;2.80;;
10293;SDS011;5192;50.328;7.610;2023-11-21T00:15:09;2.53;;;2.07;;
10293;SDS011;5192;50.328;7.610;2023-11-21T00:17:37;3.00;;;2.10;;
10293;SDS011;5192;50.328;7.610;2023-11-21T00:20:06;3.20;;;2.30;;
10293;SDS011;5192;50.328;7.610;2023-11-21T00:22:34;4.43;;;2.43;;
10293;SDS011;5192;50.328;7.610;2023-11-21T00:25:03;2.87;;;2.10;;
10293;SDS011;5192;50.328;7.610;2023-11-21T00:27:30;3.47;;;2.03;;
10293;SDS011;5192;50.328;7.610;2023-11-21T00:29:56;4.07;;;2.20;;
10293;SDS011;5192;50.328;7.610;2023-11-21T00:32:25;3.33;;;2.10;;
10293;SDS011;5192;50.328;7.610;2023-11-21T00:34:52;5.60;;;2.50;;
10293;SDS011;5192;50.328;7.610;2023-11-21T00:37:21;5.77;;;2.20;;
10293;SDS011;5192;50.328;7.610;2023-11-21T00:39:50;4.10;;;2.70;;
10293;SDS011;5192;50.328;7.610;2023-11-21T00:42:17;3.53;;;1.90;;
10293;SDS011;5192;50.328;7.610;2023-11-21T00:44:44;5.20;;;2.40;;
10293;SDS011;5192;50.328;7.610;2023-11-21T00:47:12;3.63;;;2.13;;
10293;SDS011;5192;50.328;7.610;2023-11-21T00:49:39;4.80;;;2.17;;
10293;SDS011;5192;50.328;7.610;2023-11-21T00:52:06;2.20;;;1.90;;
10293;SDS011;5192;50.328;7.610;2023-11-21T00:54:33;3.17;;;2.13;;
10293;SDS011;5192;50.328;7.610;2023-11-21T00:57:02;3.57;;;2.30;;
10293;SDS011;5192;50.328;7.610;2023-11-21T00:59:29;2.17;;;1.97;;
10293;SDS011;5192;50.328;7.610;2023-11-21T01:01:57;3.90;;;2.10;;
10293;SDS011;5192;50.328;7.610;2023-11-21T01:04:26;2.57;;;2.20;;
10293;SDS011;5192;50.328;7.610;2023-11-21T01:06:54;2.83;;;2.20;;
10293;SDS011;5192;50.328;7.610;2023-11-21T01:09:22;3.60;;;2.23;;
10293;SDS011;5192;50.328;7.610;2023-11-21T01:11:48;3.13;;;2.13;;
10293;SDS011;5192;50.328;7.610;2023-11-21T01:14:18;3.07;;;2.33;;
10293;SDS011;5192;50.328;7.610;2023-11-21T01:16:45;4.47;;;2.23;;
10293;SDS011;5192;50.328;7.610;2023-11-21T01:19:12;4.70;;;2.90;;
10293;SDS011;5192;50.328;7.610;2023-11-21T01:21:41;8.10;;;2.87;;
10293;SDS011;5192;50.328;7.610;2023-11-21T01:24:09;4.80;;;3.27;;
10293;SDS011;5192;50.328;7.610;2023-11-21T01:26:35;6.70;;;3.60;;
10293;SDS011;5192;50.328;7.610;2023-11-21T01:29:04;5.57;;;4.03;;
10293;SDS011;5192;50.328;7.610;2023-11-21T01:31:32;6.00;;;4.10;;
10293;SDS011;5192;50.328;7.610;2023-11-21T01:34:00;6.43;;;4.73;;
10293;SDS011;5192;50.328;7.610;2023-11-21T01:36:32;9.40;;;4.60;;
10293;SDS011;5192;50.328;7.610;2023-11-21T01:39:02;5.60;;;4.37;;
10293;SDS011;5192;50.328;7.610;2023-11-21T01:41:35;8.00;;;4.97;;
10293;SDS011;5192;50.328;7.610;2023-11-21T01:44:06;6.13;;;5.53;;
10293;SDS011;5192;50.328;7.610;2023-11-21T01:46:38;8.03;;;5.03;;
10293;SDS011;5192;50.328;7.610;2023-11-21T01:49:05;7.40;;;5.10;;
10293;SDS011;5192;50.328;7.610;2023-11-21T01:51:31;8.57;;;5.77;;
10293;SDS011;5192;50.328;7.610;2023-11-21T01:53:59;7.87;;;5.13;;
10293;SDS011;5192;50.328;7.610;2023-11-21T01:56:27;5.93;;;4.90;;
10293;SDS011;5192;50.328;7.610;2023-11-21T01:58:54;7.93;;;4.93;;
10293;SDS011;5192;50.328;7.610;2023-11-21T02:01:23;6.80;;;4.90;;
10293;SDS011;5192;50.328;7.610;2023-11-21T02:03:55;6.53;;;4.87;;
10293;SDS011;5192;50.328;7.610;2023-11-21T02:06:22;6.77;;;4.80;;
10293;SDS011;5192;50.328;7.610;2023-11-21T02:08:50;7.73;;;4.33;;
10293;SDS011;5192;50.328;7.610;2023-11-21T02:11:17;6.63;;;4.70;;
10293;SDS011;5192;50.328;7.610;2023-11-21T02:13:45;5.77;;;4.60;;
10293;SDS011;5192;50.328;7.610;2023-11-21T02:16:13;7.37;;;5.27;;
10293;SDS011;5192;50.328;7.610;2023-11-21T02:18:41;8.17;;;5.70;;
10293;SDS011;5192;50.328;7.610;2023-11-21T02:21:14;8.77;;;5.40;;
10293;SDS011;5192;50.328;7.610;2023-11-21T02:23:41;10.67;;;6.10;;
10293;SDS011;5192;50.328;7.610;2023-11-21T02:26:10;8.93;;;5.90;;
10293;SDS011;5192;50.328;7.610;2023-11-21T02:28:37;8.53;;;5.70;;
10293;SDS011;5192;50.328;7.610;2023-11-21T02:31:06;7.90;;;6.13;;
10293;SDS011;5192;50.328;7.610;2023-11-21T02:33:32;8.27;;;6.03;;
10293;SDS011;5192;50.328;7.610;2023-11-21T02:36:01;8.57;;;6.13;;
10293;SDS011;5192;50.328;7.610;2023-11-21T02:38:30;9.10;;;6.87;;
10293;SDS011;5192;50.328;7.610;2023-11-21T02:40:59;11.40;;;7.17;;
10293;SDS011;5192;50.328;7.610;2023-11-21T02:43:25;11.60;;;7.17;;
10293;SDS011;5192;50.328;7.610;2023-11-21T02:45:53;10.90;;;7.30;;
10293;SDS011;5192;50.328;7.610;2023-11-21T02:48:20;10.40;;;7.97;;
10293;SDS011;5192;50.328;7.610;2023-11-21T02:50:52;10.03;;;8.27;;
10293;SDS011;5192;50.328;7.610;2023-11-21T02:53:18;10.87;;;8.30;;
10293;SDS011;5192;50.328;7.610;2023-11-21T02:55:45;11.83;;;7.77;;
10293;SDS011;5192;50.328;7.610;2023-11-21T02:58:12;12.33;;;7.63;;
10293;SDS011;5192;50.328;7.610;2023-11-21T03:00:40;11.33;;;7.77;;
10293;SDS011;5192;50.328;7.610;2023-11-21T03:03:08;13.37;;;8.10;;
10293;SDS011;5192;50.328;7.610;2023-11-21T03:05:35;10.07;;;7.37;;
10293;SDS011;5192;50.328;7.610;2023-11-21T03:08:03;11.53;;;7.80;;
10293;SDS011;5192;50.328;7.610;2023-11-21T03:10:31;13.10;;;8.23;;
10293;SDS011;5192;50.328;7.610;2023-11-21T03:12:59;14.93;;;8.30;;
10293;SDS011;5192;50.328;7.610;2023-11-21T03:15:25;11.30;;;8.13;;
10293;SDS011;5192;50.328;7.610;2023-11-21T03:17:54;12.80;;;8.33;;
10293;SDS011;5192;50.328;7.610;2023-11-21T03:20:23;14.27;;;9.13;;
10293;SDS011;5192;50.328;7.610;2023-11-21T03:22:51;12.73;;;8.83;;
10293;SDS011;5192;50.328;7.610;2023-11-21T03:25:19;12.20;;;7.90;;
10293;SDS011;5192;50.328;7.610;2023-11-21T03:27:46;13.27;;;8.60;;
10293;SDS011;5192;50.328;7.610;2023-11-21T03:30:15;11.87;;;7.60;;
10293;SDS011;5192;50.328;7.610;2023-11-21T03:32:43;10.17;;;7.57;;
10293;SDS011;5192;50.328;7.610;2023-11-21T03:35:12;12.20;;;6.87;;
10293;SDS011;5192;50.328;7.610;2023-11-21T03:37:40;9.73;;;7.23;;
10293;SDS011;5192;50.328;7.610;2023-11-21T03:40:09;11.27;;;6.87;;
10293;SDS011;5192;50.328;7.610;2023-11-21T03:42:39;8.67;;;6.53;;
10293;SDS011;5192;50.328;7.610;2023-11-21T03:45:06;10.07;;;7.10;;
10293;SDS011;5192;50.328;7.610;2023-11-21T03:47:32;12.37;;;6.97;;
10293;SDS011;5192;50.328;7.610;2023-11-21T03:50:00;11.23;;;7.93;;
10293;SDS011;5192;50.328;7.610;2023-11-21T03:52:29;10.70;;;6.63;;
10293;SDS011;5192;50.328;7.610;2023-11-21T03:54:57;9.17;;;7.03;;
10293;SDS011;5192;50.328;7.610;2023-11-21T03:57:26;8.43;;;6.80;;
10293;SDS011;5192;50.328;7.610;2023-11-21T03:59:54;8.87;;;5.97;;
10293;SDS011;5192;50.328;7.610;2023-11-21T04:02:23;8.83;;;6.80;;
10293;SDS011;5192;50.328;7.610;2023-11-21T04:04:52;7.37;;;5.90;;
10293;SDS011;5192;50.328;7.610;2023-11-21T04:07:19;7.67;;;5.67;;
10293;SDS011;5192;50.328;7.610;2023-11-21T04:09:46;9.40;;;5.17;;
10293;SDS011;5192;50.328;7.610;2023-11-21T04:12:15;5.63;;;4.23;;
10293;SDS011;5192;50.328;7.610;2023-11-21T04:14:42;5.77;;;4.40;;
10293;SDS011;5192;50.328;7.610;2023-11-21T04:17:10;5.37;;;4.33;;
10293;SDS011;5192;50.328;7.610;2023-11-21T04:19:37;6.50;;;4.50;;
10293;SDS011;5192;50.328;7.610;2023-11-21T04:22:07;5.00;;;4.00;;
10293;SDS011;5192;50.328;7.610;2023-11-21T04:24:33;6.90;;;4.13;;
10293;SDS011;5192;50.328;7.610;2023-11-21T04:27:02;5.57;;;4.17;;
10293;SDS011;5192;50.328;7.610;2023-11-21T04:29:27;6.90;;;4.20;;
10293;SDS011;5192;50.328;7.610;2023-11-21T04:31:54;6.43;;;4.10;;
10293;SDS011;5192;50.328;7.610;2023-11-21T04:34:22;5.23;;;3.83;;
10293;SDS011;5192;50.328;7.610;2023-11-21T04:36:49;4.73;;;3.57;;
10293;SDS011;5192;50.328;7.610;2023-11-21T04:39:16;5.03;;;3.80;;
10293;SDS011;5192;50.328;7.610;2023-11-21T04:41:46;4.70;;;3.20;;
10293;SDS011;5192;50.328;7.610;2023-11-21T04:44:13;5.63;;;3.60;;
10293;SDS011;5192;50.328;7.610;2023-11-21T04:46:42;4.23;;;3.70;;
10293;SDS011;5192;50.328;7.610;2023-11-21T04:49:10;3.77;;;3.37;;
10293;SDS011;5192;50.328;7.610;2023-11-21T04:51:37;3.80;;;3.37;;
10293;SDS011;5192;50.328;7.610;2023-11-21T04:54:06;4.00;;;3.03;;
10293;SDS011;5192;50.328;7.610;2023-11-21T04:56:33;3.30;;;3.00;;
10293;SDS011;5192;50.328;7.610;2023-11-21T04:59:01;5.10;;;3.13;;
10293;SDS011;5192;50.328;7.610;2023-11-21T05:01:31;6.73;;;3.07;;
10293;SDS011;5192;50.328;7.610;2023-11-21T05:03:57;3.63;;;3.00;;
10293;SDS011;5192;50.328;7.610;2023-11-21T05:06:24;3.13;;;2.70;;
10293;SDS011;5192;50.328;7.610;2023-11-21T05:08:54;4.40;;;3.70;;
10293;SDS011;5192;50.328;7.610;2023-11-21T05:11:26;3.70;;;3.00;;
10293;SDS011;5192;50.328;7.610;2023-11-21T05:13:55;4.37;;;3.20;;
10293;SDS011;5192;50.328;7.610;2023-11-21T05:16:25;4.30;;;3.03;;
10293;SDS011;5192;50.328;7.610;2023-11-21T05:18:55;7.17;;;3.20;;
10293;SDS011;5192;50.328;7.610;2023-11-21T05:21:27;4.83;;;3.00;;
10293;SDS011;5192;50.328;7.610;2023-11-21T05:23:56;3.73;;;2.77;;
10293;SDS011;5192;50.328;7.610;2023-11-21T05:26:25;3.00;;;2.70;;
10293;SDS011;5192;50.328;7.610;2023-11-21T05:28:52;4.33;;;3.00;;
10293;SDS011;5192;50.328;7.610;2023-11-21T05:31:21;3.43;;;2.87;;
10293;SDS011;5192;50.328;7.610;2023-11-21T05:33:48;3.17;;;2.87;;
10293;SDS011;5192;50.328;7.610;2023-11-21T05:36:15;4.40;;;3.00;;
10293;SDS011;5192;50.328;7.610;2023-11-21T05:38:43;5.80;;;3.00;;
10293;SDS011;5192;50.328;7.610;2023-11-21T05:41:12;4.13;;;3.17;;
10293;SDS011;5192;50.328;7.610;2023-11-21T05:43:39;5.13;;;3.07;;
10293;SDS011;5192;50.328;7.610;2023-11-21T05:46:06;5.50;;;3.27;;
10293;SDS011;5192;50.328;7.610;2023-11-21T05:48:35;4.77;;;2.90;;
10293;SDS011;5192;50.328;7.610;2023-11-21T05:51:06;3.80;;;2.73;;
10293;SDS011;5192;50.328;7.610;2023-11-21T05:53:34;3.73;;;2.63;;
10293;SDS011;5192;50.328;7.610;2023-11-21T05:56:02;3.77;;;3.00;;
10293;SDS011;5192;50.328;7.610;2023-11-21T05:58:31;3.80;;;2.83;;
10293;SDS011;5192;50.328;7.610;2023-11-21T06:00:59;4.90;;;2.80;;
10293;SDS011;5192;50.328;7.610;2023-11-21T06:03:26;4.07;;;3.23;;
10293;SDS011;5192;50.328;7.610;2023-11-21T06:05:53;5.33;;;3.20;;
10293;SDS011;5192;50.328;7.610;2023-11-21T06:08:21;5.63;;;3.00;;
10293;SDS011;5192;50.328;7.610;2023-11-21T06:10:49;3.50;;;2.97;;
10293;SDS011;5192;50.328;7.610;2023-11-21T06:13:17;3.73;;;3.37;;
10293;SDS011;5192;50.328;7.610;2023-11-21T06:15:51;4.83;;;3.40;;
10293;SDS011;5192;50.328;7.610;2023-11-21T06:18:17;3.87;;;3.10;;
10293;SDS011;5192;50.328;7.610;2023-11-21T06:20:46;5.37;;;3.20;;
10293;SDS011;5192;50.328;7.610;2023-11-21T06:23:13;4.47;;;3.43;;
10293;SDS011;5192;50.328;7.610;2023-11-21T06:25:43;5.07;;;3.87;;
10293;SDS011;5192;50.328;7.610;2023-11-21T06:28:10;4.83;;;3.80;;
10293;SDS011;5192;50.328;7.610;2023-11-21T06:30:38;4.77;;;3.37;;
10293;SDS011;5192;50.328;7.610;2023-11-21T06:33:04;6.23;;;3.73;;
10293;SDS011;5192;50.328;7.610;2023-11-21T06:35:32;4.60;;;3.70;;
10293;SDS011;5192;50.328;7.610;2023-11-21T06:38:00;4.57;;;3.40;;
10293;SDS011;5192;50.328;7.610;2023-11-21T06:40:26;5.87;;;3.77;;
10293;SDS011;5192;50.328;7.610;2023-11-21T06:42:54;6.67;;;4.27;;
10293;SDS011;5192;50.328;7.610;2023-11-21T06:45:24;4.33;;;3.90;;
10293;SDS011;5192;50.328;7.610;2023-11-21T06:47:50;6.87;;;4.60;;
10293;SDS011;5192;50.328;7.610;2023-11-21T06:50:18;5.90;;;4.03;;
10293;SDS011;5192;50.328;7.610;2023-11-21T06:52:47;5.77;;;3.77;;
10293;SDS011;5192;50.328;7.610;2023-11-21T06:55:15;7.33;;;4.27;;
10293;SDS011;5192;50.328;7.610;2023-11-21T06:57:42;6.33;;;3.83;;
10293;SDS011;5192;50.328;7.610;2023-11-21T07:00:11;8.50;;;4.00;;
10293;SDS011;5192;50.328;7.610;2023-11-21T07:02:39;5.87;;;4.40;;
10293;SDS011;5192;50.328;7.610;2023-11-21T07:05:05;11.53;;;4.67;;
10293;SDS011;5192;50.328;7.610;2023-11-21T07:07:32;5.80;;;4.80;;
10293;SDS011;5192;50.328;7.610;2023-11-21T07:10:02;6.87;;;5.07;;
10293;SDS011;5192;50.328;7.610;2023-11-21T07:12:41;10.23;;;5.17;;
10293;SDS011;5192;50.328;7.610;2023-11-21T07:15:10;8.10;;;5.30;;
10293;SDS011;5192;50.328;7.610;2023-11-21T07:17:37;8.10;;;5.23;;
10293;SDS011;5192;50.328;7.610;2023-11-21T07:20:05;7.83;;;5.60;;
10293;SDS011;5192;50.328;7.610;2023-11-21T07:22:31;7.73;;;5.67;;
10293;SDS011;5192;50.328;7.610;2023-11-21T07:24:57;6.90;;;5.37;;
10293;SDS011;5192;50.328;7.610;2023-11-21T07:27:25;7.63;;;5.40;;
10293;SDS011;5192;50.328;7.610;2023-11-21T07:29:55;9.80;;;5.60;;
10293;SDS011;5192;50.328;7.610;2023-11-21T07:32:22;8.53;;;6.53;;
10293;SDS011;5192;50.328;7.610;2023-11-21T07:34:49;8.20;;;5.90;;
10293;SDS011;5192;50.328;7.610;2023-11-21T07:37:17;11.63;;;7.60;;
10293;SDS011;5192;50.328;7.610;2023-11-21T07:39:46;12.17;;;7.20;;
10293;SDS011;5192;50.328;7.610;2023-11-21T07:42:12;10.10;;;6.63;;
10293;SDS011;5192;50.328;7.610;2023-11-21T07:44:41;11.30;;;8.17;;
10293;SDS011;5192;50.328;7.610;2023-11-21T07:47:09;13.33;;;8.23;;
10293;SDS011;5192;50.328;7.610;2023-11-21T07:49:36;15.37;;;9.83;;
10293;SDS011;5192;50.328;7.610;2023-11-21T07:52:04;14.37;;;11.30;;
10293;SDS011;5192;50.328;7.610;2023-11-21T07:54:32;18.87;;;11.97;;
10293;SDS011;5192;50.328;7.610;2023-11-21T07:57:05;19.90;;;14.27;;
10293;SDS011;5192;50.328;7.610;2023-11-21T07:59:31;22.33;;;14.33;;
10293;SDS011;5192;50.328;7.610;2023-11-21T08:01:57;22.17;;;14.67;;
10293;SDS011;5192;50.328;7.610;2023-11-21T08:04:25;21.73;;;14.90;;
10293;SDS011;5192;50.328;7.610;2023-11-21T08:06:53;25.00;;;16.27;;
10293;SDS011;5192;50.328;7.610;2023-11-21T08:09:21;22.47;;;15.43;;
10293;SDS011;5192;50.328;7.610;2023-11-21T08:11:52;23.97;;;16.33;;
10293;SDS011;5192;50.328;7.610;2023-11-21T08:14:20;25.07;;;15.50;;
10293;SDS011;5192;50.328;7.610;2023-11-21T08:16:59;26.30;;;16.37;;
10293;SDS011;5192;50.328;7.610;2023-11-21T08:19:27;25.77;;;16.40;;
10293;SDS011;5192;50.328;7.610;2023-11-21T08:21:54;26.50;;;17.00;;
10293;SDS011;5192;50.328;7.610;2023-11-21T08:24:22;27.37;;;16.43;;
10293;SDS011;5192;50.328;7.610;2023-11-21T08:26:50;23.73;;;16.33;;
10293;SDS011;5192;50.328;7.610;2023-11-21T08:29:17;32.30;;;17.90;;
10293;SDS011;5192;50.328;7.610;2023-11-21T08:31:46;28.17;;;17.60;;
10293;SDS011;5192;50.328;7.610;2023-11-21T08:34:12;29.67;;;18.33;;
10293;SDS011;5192;50.328;7.610;2023-11-21T08:36:44;29.03;;;17.87;;
10293;SDS011;5192;50.328;7.610;2023-11-21T08:39:11;26.23;;;18.00;;
10293;SDS011;5192;50.328;7.610;2023-11-21T08:41:42;28.47;;;18.77;;
10293;SDS011;5192;50.328;7.610;2023-11-21T08:44:11;33.27;;;19.73;;
10293;SDS011;5192;50.328;7.610;2023-11-21T08:46:39;29.70;;;18.77;;
10293;SDS011;5192;50.328;7.610;2023-11-21T08:49:10;29.40;;;17.80;;
10293;SDS011;5192;50.328;7.610;2023-11-21T08:51:38;30.40;;;18.47;;
10293;SDS011;5192;50.328;7.610;2023-11-21T08:54:07;27.20;;;17.40;;
10293;SDS011;5192;50.328;7.610;2023-11-21T08:56:36;27.87;;;17.23;;
10293;SDS011;5192;50.328;7.610;2023-11-21T08:59:03;32.00;;;17.80;;
10293;SDS011;5192;50.328;7.610;2023-11-21T09:01:34;29.77;;;18.13;;
10293;SDS011;5192;50.328;7.610;2023-11-21T09:04:00;30.77;;;18.00;;
10293;SDS011;5192;50.328;7.610;2023-11-21T09:06:28;30.77;;;18.33;;
10293;SDS011;5192;50.328;7.610;2023-11-21T09:08:57;28.30;;;17.43;;
10293;SDS011;5192;50.328;7.610;2023-11-21T09:11:24;31.30;;;17.60;;
10293;SDS011;5192;50.328;7.610;2023-11-21T09:14:00;31.70;;;18.07;;
10293;SDS011;5192;50.328;7.610;2023-11-21T09:16:32;28.60;;;16.93;;
10293;SDS011;5192;50.328;7.610;2023-11-21T09:19:01;34.03;;;18.50;;
10293;SDS011;5192;50.328;7.610;2023-11-21T09:21:31;27.47;;;17.47;;
10293;SDS011;5192;50.328;7.610;2023-11-21T09:23:59;27.77;;;16.60;;
10293;SDS011;5192;50.328;7.610;2023-11-21T09:26:29;30.93;;;17.00;;
10293;SDS011;5192;50.328;7.610;2023-11-21T09:28:55;26.07;;;17.00;;
10293;SDS011;5192;50.328;7.610;2023-11-21T09:31:23;28.10;;;18.00;;
10293;SDS011;5192;50.328;7.610;2023-11-21T09:33:52;28.47;;;17.70;;
10293;SDS011;5192;50.328;7.610;2023-11-21T09:36:21;25.63;;;17.90;;
10293;SDS011;5192;50.328;7.610;2023-11-21T09:38:52;28.53;;;18.40;;
10293;SDS011;5192;50.328;7.610;2023-11-21T09:41:27;29.40;;;17.60;;
10293;SDS011;5192;50.328;7.610;2023-11-21T09:44:00;30.10;;;19.57;;
10293;SDS011;5192;50.328;7.610;2023-11-21T09:46:33;29.63;;;18.17;;
10293;SDS011;5192;50.328;7.610;2023-11-21T09:49:05;29.17;;;18.47;;
10293;SDS011;5192;50.328;7.610;2023-11-21T09:51:42;26.00;;;17.53;;
10293;SDS011;5192;50.328;7.610;2023-11-21T09:54:11;27.27;;;17.13;;
10293;SDS011;5192;50.328;7.610;2023-11-21T09:57:00;25.67;;;16.80;;
10293;SDS011;5192;50.328;7.610;2023-11-21T09:59:30;27.10;;;17.13;;
10293;SDS011;5192;50.328;7.610;2023-11-21T10:02:03;27.63;;;17.13;;
10293;SDS011;5192;50.328;7.610;2023-11-21T10:04:31;28.70;;;18.43;;
10293;SDS011;5192;50.328;7.610;2023-11-21T10:06:57;30.20;;;17.80;;
10293;SDS011;5192;50.328;7.610;2023-11-21T10:09:26;29.03;;;18.10;;
10293;SDS011;5192;50.328;7.610;2023-11-21T10:11:55;26.67;;;17.80;;
10293;SDS011;5192;50.328;7.610;2023-11-21T10:14:22;30.87;;;17.87;;
10293;SDS011;5192;50.328;7.610;2023-11-21T10:16:55;30.97;;;18.80;;
10293;SDS011;5192;50.328;7.610;2023-11-21T10:19:24;28.73;;;16.30;;
10293;SDS011;5192;50.328;7.610;2023-11-21T10:21:53;24.93;;;15.57;;
10293;SDS011;5192;50.328;7.610;2023-11-21T10:24:27;24.77;;;15.00;;
10293;SDS011;5192;50.328;7.610;2023-11-21T10:26:56;27.43;;;16.03;;
10293;SDS011;5192;50.328;7.610;2023-11-21T10:29:23;26.03;;;14.70;;
10293;SDS011;5192;50.328;7.610;2023-11-21T10:31:50;23.60;;;13.77;;
10293;SDS011;5192;50.328;7.610;2023-11-21T10:34:19;29.07;;;15.47;;
10293;SDS011;5192;50.328;7.610;2023-11-21T10:36:48;23.77;;;14.60;;
10293;SDS011;5192;50.328;7.610;2023-11-21T10:39:19;22.53;;;14.90;;
10293;SDS011;5192;50.328;7.610;2023-11-21T10:41:49;28.40;;;14.60;;
10293;SDS011;5192;50.328;7.610;2023-11-21T10:44:17;23.37;;;13.87;;
10293;SDS011;5192;50.328;7.610;2023-11-21T10:46:53;20.87;;;13.47;;
10293;SDS011;5192;50.328;7.610;2023-11-21T10:49:38;23.37;;;13.83;;
10293;SDS011;5192;50.328;7.610;2023-11-21T10:52:10;24.03;;;14.67;;
10293;SDS011;5192;50.328;7.610;2023-11-21T10:54:49;19.97;;;13.20;;
10293;SDS011;5192;50.328;7.610;2023-11-21T10:57:17;19.63;;;13.37;;
10293;SDS011;5192;50.328;7.610;2023-11-21T10:59:57;19.10;;;13.17;;
10293;SDS011;5192;50.328;7.610;2023-11-21T11:02:24;19.20;;;12.53;;
10293;SDS011;5192;50.328;7.610;2023-11-21T11:04:57;19.73;;;12.17;;
10293;SDS011;5192;50.328;7.610;2023-11-21T11:07:27;18.47;;;13.10;;
10293;SDS011;5192;50.328;7.610;2023-11-21T11:09:55;21.50;;;14.07;;
10293;SDS011;5192;50.328;7.610;2023-11-21T11:12:24;22.70;;;13.93;;
10293;SDS011;5192;50.328;7.610;2023-11-21T11:14:53;24.33;;;15.70;;
10293;SDS011;5192;50.328;7.610;2023-11-21T11:17:24;23.23;;;14.20;;
10293;SDS011;5192;50.328;7.610;2023-11-21T11:19:52;22.97;;;13.57;;
10293;SDS011;5192;50.328;7.610;2023-11-21T11:30:46;24.60;;;16.27;;
10293;SDS011;5192;50.328;7.610;2023-11-21T11:33:20;21.87;;;13.80;;
10293;SDS011;5192;50.328;7.610;2023-11-21T11:36:10;25.10;;;15.03;;
10293;SDS011;5192;50.328;7.610;2023-11-21T11:38:53;21.13;;;14.17;;
10293;SDS011;5192;50.328;7.610;2023-11-21T11:41:26;21.03;;;13.80;;
10293;SDS011;5192;50.328;7.610;2023-11-21T11:44:02;20.07;;;13.83;;
10293;SDS011;5192;50.328;7.610;2023-11-21T11:46:44;23.50;;;14.70;;
10293;SDS011;5192;50.328;7.610;2023-11-21T11:49:33;21.60;;;14.47;;
10293;SDS011;5192;50.328;7.610;2023-11-21T11:54:43;23.33;;;15.37;;
10293;SDS011;5192;50.328;7.610;2023-11-21T11:57:12;26.00;;;15.67;;
10293;SDS011;5192;50.328;7.610;2023-11-21T12:02:25;26.60;;;15.70;;
10293;SDS011;5192;50.328;7.610;2023-11-21T12:04:55;22.57;;;14.40;;
10293;SDS011;5192;50.328;7.610;2023-11-21T12:07:23;24.20;;;14.13;;
10293;SDS011;5192;50.328;7.610;2023-11-21T12:09:50;22.83;;;14.90;;
10293;SDS011;5192;50.328;7.610;2023-11-21T12:12:21;20.77;;;13.30;;
10293;SDS011;5192;50.328;7.610;2023-11-21T12:14:49;21.80;;;13.93;;
10293;SDS011;5192;50.328;7.610;2023-11-21T12:17:16;23.13;;;14.27;;
10293;SDS011;5192;50.328;7.610;2023-11-21T12:19:42;23.07;;;15.03;;
10293;SDS011;5192;50.328;7.610;2023-11-21T12:22:10;22.67;;;14.27;;
10293;SDS011;5192;50.328;7.610;2023-11-21T12:24:36;20.73;;;13.57;;
10293;SDS011;5192;50.328;7.610;2023-11-21T12:27:05;20.27;;;14.17;;
10293;SDS011;5192;50.328;7.610;2023-11-21T12:29:32;21.63;;;14.27;;
10293;SDS011;5192;50.328;7.610;2023-11-21T12:32:00;22.37;;;14.03;;
10293;SDS011;5192;50.328;7.610;2023-11-21T12:34:28;23.47;;;14.33;;
10293;SDS011;5192;50.328;7.610;2023-11-21T12:36:57;23.13;;;13.80;;
10293;SDS011;5192;50.328;7.610;2023-11-21T12:39:24;23.47;;;14.23;;
10293;SDS011;5192;50.328;7.610;2023-11-21T12:41:52;21.03;;;15.57;;
10293;SDS011;5192;50.328;7.610;2023-11-21T12:44:20;22.67;;;13.80;;
10293;SDS011;5192;50.328;7.610;2023-11-21T12:46:50;23.53;;;13.87;;
10293;SDS011;5192;50.328;7.610;2023-11-21T12:49:19;23.70;;;14.83;;
10293;SDS011;5192;50.328;7.610;2023-11-21T12:51:48;20.67;;;14.20;;
10293;SDS011;5192;50.328;7.610;2023-11-21T12:54:14;22.10;;;13.73;;
10293;SDS011;5192;50.328;7.610;2023-11-21T12:56:46;21.30;;;14.33;;
10293;SDS011;5192;50.328;7.610;2023-11-21T12:59:13;18.63;;;12.63;;
10293;SDS011;5192;50.328;7.610;2023-11-21T13:01:44;21.60;;;12.47;;
10293;SDS011;5192;50.328;7.610;2023-11-21T13:04:10;19.60;;;12.73;;
10293;SDS011;5192;50.328;7.610;2023-11-21T13:06:39;20.27;;;12.33;;
10293;SDS011;5192;50.328;7.610;2023-11-21T13:09:08;20.00;;;12.57;;
10293;SDS011;5192;50.328;7.610;2023-11-21T13:11:43;19.93;;;12.70;;
10293;SDS011;5192;50.328;7.610;2023-11-21T13:14:12;17.20;;;11.73;;
10293;SDS011;5192;50.328;7.610;2023-11-21T13:16:40;16.03;;;11.23;;
10293;SDS011;5192;50.328;7.610;2023-11-21T13:19:12;19.43;;;11.97;;
10293;SDS011;5192;50.328;7.610;2023-11-21T13:21:40;21.33;;;12.33;;
10293;SDS011;5192;50.328;7.610;2023-11-21T13:24:08;20.50;;;12.23;;
10293;SDS011;5192;50.328;7.610;2023-11-21T13:26:35;18.63;;;12.97;;
10293;SDS011;5192;50.328;7.610;2023-11-21T13:29:02;16.50;;;12.00;;
10293;SDS011;5192;50.328;7.610;2023-11-21T13:31:30;21.00;;;13.40;;
10293;SDS011;5192;50.328;7.610;2023-11-21T13:33:59;18.00;;;12.03;;
10293;SDS011;5192;50.328;7.610;2023-11-21T13:36:31;19.33;;;13.00;;
10293;SDS011;5192;50.328;7.610;2023-11-21T13:39:02;20.93;;;13.00;;
10293;SDS011;5192;50.328;7.610;2023-11-21T13:41:33;19.00;;;12.30;;
10293;SDS011;5192;50.328;7.610;2023-11-21T13:44:00;19.63;;;12.60;;
10293;SDS011;5192;50.328;7.610;2023-11-21T13:46:43;17.83;;;11.73;;
10293;SDS011;5192;50.328;7.610;2023-11-21T13:49:15;19.73;;;13.00;;
10293;SDS011;5192;50.328;7.610;2023-11-21T13:51:43;20.10;;;12.57;;
10293;SDS011;5192;50.328;7.610;2023-11-21T13:54:16;18.37;;;12.03;;
10293;SDS011;5192;50.328;7.610;2023-11-21T13:56:46;20.10;;;12.33;;
10293;SDS011;5192;50.328;7.610;2023-11-21T13:59:16;19.83;;;12.63;;
10293;SDS011;5192;50.328;7.610;2023-11-21T14:01:51;18.67;;;11.80;;
10293;SDS011;5192;50.328;7.610;2023-11-21T14:04:36;19.60;;;12.07;;
10293;SDS011;5192;50.328;7.610;2023-11-21T14:07:16;19.07;;;12.37;;
10293;SDS011;5192;50.328;7.610;2023-11-21T14:09:52;22.27;;;12.10;;
10293;SDS011;5192;50.328;7.610;2023-11-21T14:12:19;20.33;;;12.60;;
10293;SDS011;5192;50.328;7.610;2023-11-21T14:14:47;20.00;;;12.73;;
10293;SDS011;5192;50.328;7.610;2023-11-21T14:17:16;35.90;;;28.40;;
10293;SDS011;5192;50.328;7.610;2023-11-21T14:19:43;19.20;;;12.33;;
10293;SDS011;5192;50.328;7.610;2023-11-21T14:22:11;19.73;;;11.80;;
10293;SDS011;5192;50.328;7.610;2023-11-21T14:24:39;22.33;;;14.40;;
10293;SDS011;5192;50.328;7.610;2023-11-21T14:27:16;18.33;;;12.63;;
10293;SDS011;5192;50.328;7.610;2023-11-21T14:29:44;18.20;;;12.60;;
10293;SDS011;5192;50.328;7.610;2023-11-21T14:32:13;22.60;;;13.10;;
10293;SDS011;5192;50.328;7.610;2023-11-21T14:34:41;18.80;;;12.90;;
10293;SDS011;5192;50.328;7.610;2023-11-21T14:37:13;20.10;;;13.90;;
10293;SDS011;5192;50.328;7.610;2023-11-21T14:39:41;24.43;;;12.83;;
10293;SDS011;5192;50.328;7.610;2023-11-21T14:42:13;19.57;;;13.03;;
10293;SDS011;5192;50.328;7.610;2023-11-21T14:44:41;22.87;;;13.83;;
10293;SDS011;5192;50.328;7.610;2023-11-21T14:47:08;20.30;;;12.80;;
10293;SDS011;5192;50.328;7.610;2023-11-21T14:49:42;18.90;;;12.87;;
10293;SDS011;5192;50.328;7.610;2023-11-21T14:52:20;21.37;;;13.63;;
10293;SDS011;5192;50.328;7.610;2023-11-21T14:55:13;23.13;;;13.37;;
10293;SDS011;5192;50.328;7.610;2023-11-21T14:57:50;22.27;;;12.70;;
10293;SDS011;5192;50.328;7.610;2023-11-21T15:00:20;23.00;;;13.23;;
10293;SDS011;5192;50.328;7.610;2023-11-21T15:03:04;22.93;;;13.67;;
10293;SDS011;5192;50.328;7.610;2023-11-21T15:05:33;23.63;;;13.50;;
10293;SDS011;5192;50.328;7.610;2023-11-21T15:08:00;19.23;;;12.90;;
10293;SDS011;5192;50.328;7.610;2023-11-21T15:10:59;22.73;;;13.63;;
10293;SDS011;5192;50.328;7.610;2023-11-21T15:13:31;19.60;;;12.43;;